Bluff Dale, TX (76433)

5:19 AM CST on February 14, 2016 (GMT -0600)
Mountain Lakes | | Change Station
CLOSE
Current Station
Personal Weather Station
Location: Bluff Dale, TX
Elevation: 1100 ft
Nearby Weather Stations

Elev 1100 ft 32.31 °N, 98.01 °W | Updated 1 second ago

Overcast
Overcast
58.0 °F
Feels Like 58.0 °F
N
4.0
Wind Variable Wind from SSE
Gusts 11.0 mph

Today
High -- | Low -- °F
--% Chance of Precip.
Yesterday
High -- | Low -- °F
Precip. -- in
Pressure 29.96 in
Visibility 10.0 miles
Clouds Overcast 1800 ft
Dew Point 52 °F
Humidity 81%
Rainfall 0.00 in
Snow Depth Not available.
7:16 AM 6:16 PM
Waxing Crescent, 40% visible
METAR KSEP 141055Z AUTO 20016G21KT 10SM OVC018 14/11 A2996 RMK AO2 T01410105
Pressure 29.96 in
Visibility 10.0 miles
Clouds Overcast 1800 ft
Dew Point 52 °F
Humidity 81%
Rainfall 0.00 in
Snow Depth Not available.
7:16 AM 6:16 PM
Waxing Crescent, 40% visible
METAR KSEP 141055Z AUTO 20016G21KT 10SM OVC018 14/11 A2996 RMK AO2 T01410105

10-Day Weather Forecast

Almanac

Astronomy

Feb. 14, 2016 Rise Set
Actual Time
Civil Twilight
Nautical Twilight
Astronomical Twilight
Moon
Length of Visible Light
Length of Day
Tomorrow will be .
, % of the Moon is Illuminated

Today's Extremes

State Highs State Lows

Community

WunderPhotos

Upload Photos

1,892,765 photos uploaded!

WunderBlog® & News

Nearby

Air Quality

  Air Quality AQ Index Pollutant
Not available.

Snow Depth

Station Depth Elevation

Earthquake Activity

City Distance Mag. Time & Date
Minimum magnitude displayed is 2.5.

Coastal Water Temperatures

Place Temperature

Stations

Nearby Weather Stations

Station Location Temp. Windchill Dew Point Humidity Wind Precip. Elev Updated Type
                   

Watches & Warnings

There are currently no watches in effect.